Time;durP1;ratioP1;P1;durP2;ratioP2;P2;SDS_P1;SDS_P2;PMS_P1;PMS_P2;Temp;Humidity;BMP_temperature;BMP_pressure;BME280_temperature;BME280_humidity;BME280_pressure;Samples;Min_cycle;Max_cycle;Signal;HPM_P1;HPM_P2
2022/05/05 00:01:34;;;;;;;9.02;7.53;;;10.30;99.90;;;9.94;100.00;97364.06;5022545;28;20076;-57
2022/05/05 00:04:01;;;;;;;9.68;7.78;;;10.40;99.90;;;9.99;100.00;97368.31;5019222;28;20083;-57
2022/05/05 00:06:27;;;;;;;8.52;6.82;;;10.50;99.90;;;10.11;100.00;97365.25;5016674;28;20052;-58
2022/05/05 00:08:54;;;;;;;9.50;6.78;;;10.60;99.90;;;10.19;100.00;97363.19;5004505;28;20137;-57
2022/05/05 00:17:09;;;;;;;11.23;8.15;;;10.80;99.90;;;10.38;100.00;97368.69;5026921;28;20408;-57
2022/05/05 00:19:38;;;;;;;8.85;7.95;;;10.80;99.90;;;10.36;100.00;97361.75;5022710;28;20033;-58
2022/05/05 00:22:05;;;;;;;8.10;6.68;;;10.80;99.90;;;10.30;100.00;97362.78;5024275;28;20041;-58
2022/05/05 00:24:31;;;;;;;9.10;7.50;;;10.80;99.90;;;10.27;100.00;97368.19;5017230;28;20180;-58
2022/05/05 00:26:57;;;;;;;7.38;6.35;;;10.70;99.90;;;10.23;100.00;97369.19;5021137;28;20045;-57
2022/05/05 00:29:23;;;;;;;8.65;6.50;;;10.70;99.90;;;10.18;100.00;97363.25;5022963;28;20516;-58
2022/05/05 00:31:49;;;;;;;9.68;6.57;;;10.60;99.90;;;10.17;100.00;97367.66;5021420;28;20036;-57
2022/05/05 00:34:16;;;;;;;8.30;6.97;;;10.60;99.90;;;10.15;100.00;97368.63;5024299;28;20033;-58
2022/05/05 00:36:42;;;;;;;8.48;7.00;;;10.60;99.90;;;10.11;100.00;97368.72;5024605;28;20036;-58
2022/05/05 00:39:11;;;;;;;7.22;6.47;;;10.60;99.90;;;10.08;100.00;97368.84;5024025;28;20529;-58
2022/05/05 00:41:47;;;;;;;8.30;6.88;;;10.60;99.90;;;10.11;100.00;97362.63;5020606;28;20025;-58
2022/05/05 00:44:14;;;;;;;8.85;7.25;;;10.60;99.90;;;10.11;100.00;97363.47;5018007;28;20040;-57
2022/05/05 00:46:40;;;;;;;9.27;7.07;;;10.60;99.90;;;10.10;100.00;97359.13;5019669;28;20064;-57
2022/05/05 00:49:06;;;;;;;8.25;7.13;;;10.50;99.90;;;10.09;100.00;97351.28;5007981;28;20141;-58
2022/05/05 00:51:32;;;;;;;9.93;7.63;;;10.50;99.90;;;10.05;100.00;97358.44;5020464;28;20037;-57
2022/05/05 00:53:58;;;;;;;8.30;7.15;;;10.50;99.90;;;9.98;100.00;97356.03;5022499;28;20123;-58
2022/05/05 00:56:25;;;;;;;8.63;7.07;;;10.50;99.90;;;9.92;100.00;97349.22;5008217;28;20048;-58
2022/05/05 00:58:55;;;;;;;7.72;6.75;;;10.40;99.90;;;9.96;100.00;97355.22;5027331;28;20031;-58
2022/05/05 01:01:22;;;;;;;9.70;7.07;;;10.40;99.90;;;9.95;100.00;97362.28;5027616;28;20088;-58
2022/05/05 01:03:49;;;;;;;7.03;6.32;;;10.40;99.90;;;9.91;100.00;97352.78;5026351;28;20037;-58
2022/05/05 01:06:15;;;;;;;7.82;6.82;;;10.40;99.90;;;9.91;100.00;97351.00;5024278;28;20036;-58
2022/05/05 01:08:42;;;;;;;8.00;7.20;;;10.40;99.90;;;9.94;100.00;97356.16;5022564;28;20033;-57
2022/05/05 01:11:08;;;;;;;8.90;7.25;;;10.40;99.90;;;9.94;100.00;97350.91;5023905;28;20045;-58
2022/05/05 01:13:38;;;;;;;8.95;7.10;;;10.40;99.90;;;9.94;100.00;97360.56;5021279;28;20063;-58
2022/05/05 01:16:06;;;;;;;8.95;7.57;;;10.40;99.90;;;9.94;100.00;97361.44;5022868;28;20034;-58
2022/05/05 01:18:32;;;;;;;10.35;7.28;;;10.40;99.90;;;9.96;100.00;97361.38;5025339;28;20049;-57
2022/05/05 01:20:58;;;;;;;12.57;7.20;;;10.40;99.90;;;9.95;100.00;97362.28;5047734;22;20611;-49
2022/05/05 01:23:24;;;;;;;7.78;6.90;;;10.40;99.90;;;9.98;100.00;97366.56;5037896;28;20032;-47
2022/05/05 01:28:39;;;;;;;11.10;7.90;;;10.40;99.90;;;10.00;100.00;97364.78;5038156;28;20551;-49
2022/05/05 01:31:07;;;;;;;13.27;7.82;;;10.40;99.90;;;10.00;100.00;97364.78;5038373;28;20484;-49
2022/05/05 01:33:33;;;;;;;9.65;7.75;;;10.50;99.90;;;9.98;100.00;97366.56;5037194;28;20029;-51
2022/05/05 01:35:59;;;;;;;9.68;7.72;;;10.50;99.90;;;9.86;100.00;97341.53;5036282;28;20142;-50
2022/05/05 01:38:35;;;;;;;9.63;7.97;;;10.50;99.90;;;10.05;100.00;97371.59;5032533;28;20025;-52
2022/05/05 01:41:03;;;;;;;10.45;7.55;;;10.50;99.90;;;9.89;100.00;97351.97;5039776;28;20033;-50
2022/05/05 01:43:29;;;;;;;10.65;7.82;;;10.50;99.90;;;10.01;100.00;97377.88;5040520;28;20033;-51
2022/05/05 01:45:54;;;;;;;8.77;7.38;;;10.50;99.90;;;10.03;100.00;97381.34;5037083;28;20419;-48
2022/05/05 01:48:20;;;;;;;11.05;7.43;;;10.50;99.90;;;10.05;100.00;97373.34;5039387;28;20412;-52
2022/05/05 01:50:48;;;;;;;9.63;7.18;;;10.50;99.90;;;10.04;100.00;97369.88;5037445;28;20032;-51
2022/05/05 01:53:14;;;;;;;8.98;7.68;;;10.50;99.90;;;10.04;100.00;97371.66;5039907;28;20039;-48
2022/05/05 01:55:40;;;;;;;10.93;7.00;;;10.50;99.90;;;10.04;100.00;97375.13;5034288;28;20435;-49
2022/05/05 01:58:06;;;;;;;8.25;7.10;;;10.50;99.90;;;10.03;100.00;97375.19;5039021;28;20120;-51
2022/05/05 02:00:32;;;;;;;7.65;6.68;;;10.50;99.90;;;10.04;100.00;97377.78;5017912;28;20129;-51
2022/05/05 02:02:58;;;;;;;9.95;7.18;;;10.50;99.90;;;9.99;100.00;97366.53;5038632;28;20021;-51
2022/05/05 02:05:25;;;;;;;7.60;6.55;;;10.50;99.90;;;10.03;100.00;97373.44;5037020;28;20033;-50
2022/05/05 02:07:50;;;;;;;9.48;7.40;;;10.50;99.90;;;10.01;100.00;97371.75;5034196;28;20033;-52
2022/05/05 02:10:19;;;;;;;9.65;8.55;;;10.50;99.90;;;9.96;100.00;97364.03;5034284;28;20381;-47
2022/05/05 02:12:45;;;;;;;12.38;8.30;;;10.40;99.90;;;9.99;100.00;97368.31;5038123;28;20493;-50
2022/05/05 02:15:13;;;;;;;8.25;7.45;;;10.50;99.90;;;10.00;100.00;97370.91;5033167;28;20429;-50
2022/05/05 02:17:42;;;;;;;9.88;7.72;;;10.50;99.90;;;10.02;100.00;97368.22;5031469;28;20282;-51
2022/05/05 02:20:13;;;;;;;8.40;7.47;;;10.40;99.90;;;9.98;100.00;97364.81;5034611;28;20396;-51
2022/05/05 02:22:40;;;;;;;11.45;8.50;;;10.50;99.90;;;10.01;100.00;97375.22;5033732;28;20024;-50
2022/05/05 02:25:07;;;;;;;9.27;7.97;;;10.40;99.90;;;9.98;100.00;97366.56;5035152;28;20041;-49
2022/05/05 02:28:06;;;;;;;10.80;7.75;;;10.50;99.90;;;10.02;100.00;97376.97;5036483;28;20110;-49
2022/05/05 02:30:32;;;;;;;7.93;7.13;;;10.40;99.90;;;10.00;100.00;97370.91;5009789;28;20072;-50
2022/05/05 02:32:57;;;;;;;9.80;8.10;;;10.40;99.90;;;9.92;100.00;97360.63;5034925;28;20399;-50
2022/05/05 02:35:24;;;;;;;9.35;7.90;;;10.40;99.90;;;9.97;100.00;97373.63;5031367;28;20044;-50
2022/05/05 02:40:34;;;;;;;11.63;9.52;;;10.30;99.90;;;9.85;100.00;97374.06;5032984;28;20056;-49
2022/05/05 02:43:00;;;;;;;10.25;8.52;;;10.30;99.90;;;9.78;100.00;97372.53;5037254;28;20108;-48
2022/05/05 02:45:26;;;;;;;9.38;7.78;;;10.30;99.90;;;9.75;100.00;97382.28;5026706;28;20488;-48
2022/05/05 02:47:53;;;;;;;8.60;7.70;;;10.20;99.90;;;9.68;100.00;97379.91;5030995;28;20039;-49
2022/05/05 02:50:19;;;;;;;8.82;7.80;;;10.10;99.90;;;9.62;100.00;97374.81;5029300;28;20029;-51
2022/05/05 02:52:45;;;;;;;9.93;7.40;;;10.10;99.90;;;9.59;100.00;97383.69;5032573;28;20044;-50
2022/05/05 02:55:12;;;;;;;9.52;7.22;;;10.00;99.90;;;9.51;100.00;97383.97;5032334;28;20595;-51
2022/05/05 02:57:37;;;;;;;9.63;7.57;;;10.00;99.90;;;9.45;100.00;97384.16;5014399;28;20144;-50
2022/05/05 03:00:07;;;;;;;8.65;7.22;;;9.90;99.90;;;9.39;100.00;97384.34;5036091;28;20043;-50
2022/05/05 03:02:34;;;;;;;9.70;8.15;;;9.90;99.90;;;9.38;100.00;97381.78;5034876;28;20048;-50
2022/05/05 03:05:00;;;;;;;8.57;7.63;;;9.80;99.90;;;9.35;100.00;97378.34;5033554;28;20033;-51
2022/05/05 03:07:26;;;;;;;10.32;9.02;;;9.80;99.90;;;9.33;100.00;97377.53;5035588;28;20029;-48
2022/05/05 03:09:52;;;;;;;11.70;8.57;;;9.80;99.90;;;9.32;100.00;97380.22;5032838;28;20040;-49
2022/05/05 03:12:18;;;;;;;8.95;7.90;;;9.80;99.90;;;9.33;100.00;97382.78;5034216;28;20431;-50
2022/05/05 03:14:46;;;;;;;9.82;8.48;;;9.80;99.90;;;9.31;100.00;97376.72;5034086;28;20041;-48
2022/05/05 03:17:12;;;;;;;10.82;8.20;;;9.70;99.90;;;9.35;100.00;97378.34;5035367;28;20059;-50
2022/05/05 03:19:38;;;;;;;9.60;8.40;;;9.80;99.90;;;9.35;100.00;97373.06;5032841;28;20116;-46
2022/05/05 03:22:04;;;;;;;9.85;8.00;;;9.80;99.90;;;9.43;100.00;97385.13;5036069;28;20025;-47
2022/05/05 03:24:29;;;;;;;9.52;7.93;;;9.90;99.90;;;9.47;100.00;97381.47;5033756;28;20033;-49
2022/05/05 03:26:56;;;;;;;8.40;6.82;;;9.90;99.90;;;9.51;100.00;97380.44;5035988;28;20090;-51
2022/05/05 03:29:22;;;;;;;9.65;7.30;;;10.00;99.90;;;9.53;100.00;97384.78;5035169;28;20029;-48
2022/05/05 03:31:48;;;;;;;9.25;7.47;;;10.00;99.90;;;9.56;100.00;97381.16;5032396;28;20056;-51
2022/05/05 03:34:14;;;;;;;8.85;7.50;;;10.00;99.90;;;9.55;100.00;97379.47;5034047;28;20033;-48
2022/05/05 03:36:39;;;;;;;9.88;8.80;;;10.10;99.90;;;9.65;100.00;97385.25;5031937;28;20484;-51
2022/05/05 03:39:05;;;;;;;11.32;9.48;;;10.10;99.90;;;9.65;100.00;97380.84;5013336;28;20044;-49
2022/05/05 03:41:32;;;;;;;10.80;9.23;;;10.10;99.90;;;9.75;100.00;97386.69;5033619;28;20460;-48
2022/05/05 03:43:57;;;;;;;8.88;7.93;;;10.20;99.90;;;9.80;100.00;97391.78;5035537;28;20033;-47
2022/05/05 03:46:24;;;;;;;10.50;7.82;;;10.30;99.90;;;9.86;100.00;97386.31;5014898;28;20024;-50
2022/05/05 03:48:50;;;;;;;10.85;7.68;;;10.30;99.90;;;9.89;100.00;97391.50;5034241;28;20036;-48
2022/05/05 03:51:16;;;;;;;8.38;7.10;;;10.30;99.90;;;9.91;100.00;97394.94;5029556;28;20033;-47
2022/05/05 03:53:42;;;;;;;7.88;6.63;;;10.40;99.90;;;9.94;100.00;97402.69;5031641;28;20095;-49
2022/05/05 03:56:07;;;;;;;9.57;7.55;;;10.40;99.90;;;9.96;100.00;97400.91;5034462;28;20552;-48
2022/05/05 03:58:33;;;;;;;9.45;7.00;;;10.40;99.90;;;9.99;100.00;97392.88;5030560;28;20052;-49
2022/05/05 04:00:58;;;;;;;6.88;6.18;;;10.40;99.90;;;10.03;100.00;97394.50;5033545;28;20024;-51
2022/05/05 04:03:34;;;;;;;6.95;6.28;;;10.50;99.90;;;10.06;100.00;97394.38;5035023;28;20411;-50
2022/05/05 04:06:03;;;;;;;6.85;6.15;;;10.50;99.90;;;10.09;100.00;97391.66;5032646;28;20115;-51
2022/05/05 04:08:30;;;;;;;7.13;6.30;;;10.50;99.90;;;10.09;100.00;97396.91;5034049;28;20560;-49
2022/05/05 04:10:56;;;;;;;7.63;6.82;;;10.60;99.90;;;10.15;100.00;97402.91;5032946;28;20481;-50
2022/05/05 04:13:22;;;;;;;9.68;8.05;;;10.60;99.90;;;10.10;100.00;97388.13;5034996;28;20102;-49
2022/05/05 04:15:48;;;;;;;11.70;9.20;;;10.60;99.90;;;10.17;100.00;97404.53;5033708;28;20397;-48
2022/05/05 04:18:14;;;;;;;10.88;9.10;;;10.60;99.90;;;10.20;100.00;97407.09;5033380;28;20079;-47
2022/05/05 04:20:43;;;;;;;11.65;9.10;;;10.60;99.90;;;10.20;100.00;97415.00;5028057;28;20463;-50
2022/05/05 04:23:10;;;;;;;10.85;8.55;;;10.60;99.90;;;10.24;100.00;97419.22;5015463;28;20032;-51
2022/05/05 04:25:40;;;;;;;10.60;8.95;;;10.70;99.90;;;10.26;100.00;97420.03;5029911;28;20036;-49
2022/05/05 04:28:07;;;;;;;11.05;8.55;;;10.60;99.90;;;10.31;100.00;97418.13;5036897;28;20242;-48
2022/05/05 04:30:33;;;;;;;10.80;8.20;;;10.70;99.90;;;10.33;100.00;97420.72;5029996;28;20151;-46
2022/05/05 04:32:59;;;;;;;10.32;7.72;;;10.70;99.90;;;10.35;100.00;97423.31;5035227;28;20034;-48
2022/05/05 04:35:25;;;;;;;10.60;8.05;;;10.80;99.90;;;10.36;100.00;97420.63;5030306;28;20233;-48
2022/05/05 04:37:51;;;;;;;9.82;8.80;;;10.80;99.90;;;10.42;100.00;97436.19;5033029;28;20480;-47
2022/05/05 04:40:16;;;;;;;9.43;8.43;;;10.80;99.90;;;10.45;100.00;97424.69;5029030;28;20036;-51
2022/05/05 04:42:42;;;;;;;9.18;8.20;;;10.90;99.90;;;10.49;100.00;97427.16;5025420;28;20171;-50
2022/05/05 04:45:08;;;;;;;9.65;8.13;;;10.90;99.90;;;10.54;100.00;97437.53;5030715;28;20168;-48
2022/05/05 04:47:34;;;;;;;9.02;6.85;;;11.00;99.90;;;10.55;100.00;97431.38;5030112;28;20049;-49
2022/05/05 04:50:00;;;;;;;7.70;6.90;;;11.00;99.90;;;10.56;100.00;97426.94;5035667;28;20436;-50
2022/05/05 04:52:27;;;;;;;6.90;6.15;;;11.00;99.90;;;10.62;100.00;97434.63;5029600;28;20408;-50
2022/05/05 04:54:52;;;;;;;8.57;6.32;;;11.00;99.90;;;10.59;100.00;97442.66;5030740;28;20036;-47
2022/05/05 04:57:18;;;;;;;7.80;6.50;;;11.00;99.90;;;10.54;100.00;97434.91;5031720;28;20028;-47
2022/05/05 04:59:44;;;;;;;10.25;7.80;;;11.00;99.90;;;10.52;100.00;97438.53;5024435;28;20616;-48
2022/05/05 05:02:10;;;;;;;9.88;7.93;;;11.00;99.90;;;10.51;100.00;97440.28;5022562;28;20021;-46
2022/05/05 05:04:35;;;;;;;8.77;7.82;;;11.00;99.90;;;10.55;100.00;97439.28;5026594;28;20107;-50
2022/05/05 05:07:01;;;;;;;11.80;8.38;;;11.00;99.90;;;10.58;100.00;97440.94;5021909;28;20036;-48
2022/05/05 05:09:27;;;;;;;10.88;8.57;;;11.00;99.90;;;10.60;100.00;97439.94;5013827;28;20359;-50
2022/05/05 05:11:53;;;;;;;11.02;9.43;;;11.10;99.90;;;10.60;100.00;97433.81;5027018;28;20095;-47
2022/05/05 05:14:18;;;;;;;12.98;9.68;;;11.10;99.90;;;10.74;100.00;97443.88;5027780;28;20517;-49
2022/05/05 05:16:44;;;;;;;11.95;10.15;;;11.20;99.90;;;10.82;100.00;97445.31;5030840;28;20493;-48
2022/05/05 05:19:10;;;;;;;14.05;10.43;;;11.20;99.90;;;10.92;100.00;97445.81;5025588;28;20501;-48
2022/05/05 05:21:36;;;;;;;12.88;10.20;;;11.40;99.90;;;11.04;100.00;97445.34;5025857;28;20043;-52
2022/05/05 05:24:02;;;;;;;14.38;11.15;;;11.50;99.90;;;11.10;100.00;97449.53;5023242;28;20933;-50
2022/05/05 05:26:28;;;;;;;12.10;9.80;;;11.50;99.90;;;11.17;100.00;97458.94;5030421;28;20079;-51
2022/05/05 05:28:54;;;;;;;10.90;9.18;;;11.60;99.90;;;11.27;100.00;97459.47;5029913;28;20065;-48
2022/05/05 05:31:21;;;;;;;10.40;8.43;;;11.70;99.90;;;11.35;100.00;97464.44;5024895;28;20173;-48
2022/05/05 05:33:48;;;;;;;10.35;8.73;;;11.80;99.90;;;11.42;100.00;97464.13;5025404;28;20029;-48
2022/05/05 05:36:14;;;;;;;12.40;8.60;;;11.80;99.90;;;11.50;100.00;97473.53;5024721;28;20040;-49
2022/05/05 05:38:40;;;;;;;12.38;8.32;;;11.90;99.90;;;11.50;100.00;97471.75;5026421;28;20121;-50
2022/05/05 05:41:06;;;;;;;8.35;6.78;;;12.00;99.90;;;11.51;100.00;97470.84;5029853;28;20044;-51
2022/05/05 05:43:32;;;;;;;10.50;7.38;;;12.00;99.90;;;11.50;100.00;97463.81;5029236;28;20505;-49
2022/05/05 05:45:58;;;;;;;8.90;7.07;;;11.90;99.90;;;11.46;100.00;97463.06;5026795;28;20079;-47
2022/05/05 05:48:24;;;;;;;7.43;6.10;;;11.90;99.90;;;11.45;100.00;97465.81;5031779;28;20044;-49
2022/05/05 05:50:49;;;;;;;7.88;5.82;;;11.90;99.90;;;11.43;100.00;97463.22;5034914;28;20381;-48
2022/05/05 05:53:15;;;;;;;7.90;5.60;;;11.90;99.90;;;11.48;100.00;97464.81;5034186;28;20032;-50
2022/05/05 05:55:41;;;;;;;9.73;7.10;;;11.90;99.90;;;11.49;100.00;97464.75;5026277;28;20037;-49
2022/05/05 05:58:07;;;;;;;10.70;7.55;;;11.90;99.90;;;11.55;100.00;97471.56;5031171;28;20029;-49
2022/05/05 06:00:33;;;;;;;10.25;7.60;;;12.00;99.90;;;11.61;100.00;97471.31;5035152;28;20079;-51
2022/05/05 06:05:45;;;;;;;10.82;8.45;;;12.10;99.90;;;11.82;100.00;97473.09;5028855;28;20661;-47
2022/05/05 06:08:11;;;;;;;9.70;6.90;;;12.20;99.90;;;11.92;100.00;97489.47;5032231;28;20484;-49
2022/05/05 06:10:37;;;;;;;8.13;6.38;;;12.30;99.90;;;12.01;100.00;97483.81;5031043;28;20166;-48
2022/05/05 06:13:03;;;;;;;6.15;5.28;;;12.40;99.90;;;12.15;100.00;97487.66;5029571;28;20396;-50
2022/05/05 06:15:30;;;;;;;8.68;6.75;;;12.60;99.90;;;12.31;100.00;97494.03;5028640;28;20095;-47
2022/05/05 06:17:56;;;;;;;7.93;6.65;;;12.70;99.90;;;12.42;100.00;97488.28;5025129;28;20033;-48
2022/05/05 06:20:22;;;;;;;11.98;7.25;;;12.80;99.90;;;12.50;100.00;97496.75;5033276;28;20247;-51
2022/05/05 06:22:50;;;;;;;9.80;7.25;;;12.90;99.90;;;12.54;100.00;97506.28;5016320;28;20037;-47
2022/05/05 06:25:18;;;;;;;9.25;7.18;;;12.90;99.90;;;12.47;100.00;97496.88;5033768;28;20036;-48
2022/05/05 06:27:44;;;;;;;7.85;6.47;;;12.90;99.90;;;12.49;100.00;97499.44;5022682;28;20040;-47
2022/05/05 06:30:11;;;;;;;8.65;6.55;;;12.90;99.90;;;12.46;100.00;97503.09;5022331;28;20033;-47
2022/05/05 06:32:37;;;;;;;9.60;6.82;;;12.90;99.90;;;12.44;100.00;97504.94;5024727;28;20121;-48
2022/05/05 06:35:03;;;;;;;10.07;7.78;;;12.80;99.90;;;12.44;100.00;97509.38;5032747;28;20496;-46
2022/05/05 06:37:29;;;;;;;8.00;7.20;;;12.80;99.90;;;12.45;100.00;97514.59;5027213;28;20059;-47
2022/05/05 06:39:54;;;;;;;8.80;6.38;;;12.90;99.90;;;12.50;100.00;97512.63;5031573;28;20021;-47
2022/05/05 06:42:20;;;;;;;8.38;7.53;;;12.90;99.90;;;12.52;100.00;97518.69;5029847;28;20044;-51
2022/05/05 06:44:46;;;;;;;9.48;7.68;;;12.90;99.90;;;12.55;100.00;97515.06;5021768;28;20063;-47
2022/05/05 06:47:11;;;;;;;6.93;6.22;;;12.90;99.90;;;12.61;100.00;97514.78;5030870;28;20068;-47
2022/05/05 06:49:37;;;;;;;9.60;7.63;;;13.00;99.90;;;12.64;100.00;97522.59;5035222;28;20028;-50
2022/05/05 06:52:04;;;;;;;13.95;7.97;;;13.00;99.90;;;12.61;100.00;97514.78;5033562;28;20123;-51
2022/05/05 06:54:30;;;;;;;8.82;7.15;;;13.00;99.90;;;12.70;100.00;97526.75;5028912;28;20033;-47
2022/05/05 06:56:56;;;;;;;8.82;7.25;;;13.10;99.90;;;12.70;100.00;97526.75;5027307;28;20428;-50
2022/05/05 06:59:22;;;;;;;9.15;7.20;;;13.10;99.90;;;12.70;100.00;97532.06;5009054;28;20033;-48
2022/05/05 07:01:56;;;;;;;11.15;7.40;;;13.10;99.90;;;12.70;100.00;97529.41;5031254;28;21383;-50
2022/05/05 07:07:11;;;;;;;9.93;8.00;;;13.10;99.90;;;12.69;100.00;97544.44;5033399;28;20107;-49
2022/05/05 07:12:22;;;;;;;11.65;8.45;;;13.00;99.90;;;12.66;100.00;97541.91;5029539;28;20133;-47
2022/05/05 07:14:48;;;;;;;13.77;7.88;;;13.10;99.90;;;12.76;100.00;97547.69;5033744;28;20911;-47
2022/05/05 07:17:14;;;;;;;11.85;8.32;;;13.10;99.90;;;12.83;100.00;97545.63;5034467;28;20377;-48
2022/05/05 07:19:40;;;;;;;9.75;7.75;;;13.20;99.90;;;12.94;100.00;97556.63;5030776;28;20036;-47
2022/05/05 07:22:07;;;;;;;10.20;7.97;;;13.30;99.90;;;13.06;100.00;97544.59;5031905;28;20504;-49
2022/05/05 07:24:33;;;;;;;8.38;7.18;;;13.50;99.90;;;13.20;100.00;97546.63;5033243;28;20094;-49
2022/05/05 07:27:01;;;;;;;13.80;7.75;;;13.50;99.90;;;13.25;100.00;97526.97;5033091;28;20028;-49
2022/05/05 07:29:26;;;;;;;9.45;7.03;;;13.70;99.90;;;13.62;100.00;97549.16;5044986;22;20041;-56
2022/05/05 07:31:52;;;;;;;9.00;7.22;;;14.00;99.90;;;13.84;100.00;97556.94;5017995;28;20018;-56
2022/05/05 07:34:21;;;;;;;9.20;7.22;;;14.20;99.90;;;13.95;100.00;97559.06;5024518;28;20083;-56
2022/05/05 07:36:47;;;;;;;11.68;7.70;;;14.40;99.90;;;14.11;100.00;97545.94;5026581;28;20041;-57
2022/05/05 07:39:12;;;;;;;8.43;6.65;;;14.50;99.90;;;14.23;100.00;97542.69;5009341;28;20075;-57
2022/05/05 07:41:39;;;;;;;7.18;5.80;;;14.60;99.90;;;14.42;100.00;97550.56;5003057;28;20055;-57
2022/05/05 07:44:05;;;;;;;10.20;6.65;;;14.80;99.90;;;14.52;100.00;97549.19;4993895;28;20105;-58
2022/05/05 07:46:34;;;;;;;12.55;5.97;;;14.90;99.90;;;14.66;100.00;97552.94;4989655;28;20157;-57
2022/05/05 07:49:05;;;;;;;7.40;6.03;;;15.00;99.90;;;14.57;100.00;97533.03;4995487;28;20068;-57
2022/05/05 07:51:32;;;;;;;9.02;6.95;;;15.10;99.90;;;14.71;100.00;97556.22;4979637;28;20167;-57
2022/05/05 07:56:43;;;;;;;10.30;7.53;;;15.20;99.90;;;14.71;100.00;97564.19;4981129;28;20052;-57
2022/05/05 07:59:09;;;;;;;8.57;6.80;;;15.20;99.90;;;14.68;100.00;97562.56;4992452;28;22536;-57
2022/05/05 08:01:35;;;;;;;6.80;5.97;;;15.10;99.90;;;14.72;100.00;97557.13;4986010;28;20441;-57
2022/05/05 08:04:01;;;;;;;10.48;8.13;;;15.10;99.90;;;14.58;100.00;97566.63;4982664;28;20069;-58
2022/05/05 08:06:27;;;;;;;8.25;7.38;;;15.00;99.90;;;14.50;100.00;97568.78;4989155;28;20072;-58
2022/05/05 08:08:52;;;;;;;10.00;7.68;;;15.00;99.90;;;14.38;100.00;97569.38;4992785;28;20037;-58
2022/05/05 08:11:18;;;;;;;11.05;7.25;;;14.90;99.90;;;14.30;100.00;97573.28;4983808;28;20296;-58
2022/05/05 08:13:44;;;;;;;11.15;8.82;;;14.70;99.90;;;14.17;100.00;97574.78;4997353;28;20902;-58
2022/05/05 08:16:10;;;;;;;8.68;6.85;;;14.60;99.90;;;14.13;100.00;97579.38;4996532;28;20557;-58
2022/05/05 08:18:39;;;;;;;10.25;7.95;;;14.50;99.90;;;13.98;100.00;97577.50;5000157;28;20064;-58
2022/05/05 08:21:06;;;;;;;8.15;6.80;;;14.40;99.90;;;13.89;100.00;97568.19;5002891;28;20028;-58
2022/05/05 08:23:32;;;;;;;13.48;7.45;;;14.30;99.90;;;13.91;100.00;97584.03;4997493;28;20056;-58
2022/05/05 08:28:42;;;;;;;11.23;7.28;;;14.30;99.90;;;14.05;100.00;97588.63;4998683;28;20048;-58
2022/05/05 08:31:10;;;;;;;9.35;7.75;;;14.40;99.90;;;14.22;100.00;97578.09;4992443;28;20042;-58
2022/05/05 08:33:38;;;;;;;13.20;8.32;;;14.60;99.90;;;14.57;100.00;97590.53;4988074;28;20068;-58
2022/05/05 08:36:05;;;;;;;13.25;10.43;;;14.90;99.90;;;14.78;98.54;97593.94;4986417;28;20132;-58
2022/05/05 08:38:32;;;;;;;15.05;9.55;;;15.30;99.90;;;15.20;98.35;97597.97;4986113;28;20064;-58
2022/05/05 08:40:58;;;;;;;12.18;8.73;;;15.60;99.90;;;15.53;96.91;97597.13;4999134;28;20641;-58
2022/05/05 08:43:24;;;;;;;11.60;8.25;;;16.00;99.90;;;15.69;94.46;97600.69;4983546;28;20034;-58
2022/05/05 08:45:50;;;;;;;10.20;8.88;;;16.10;99.90;;;15.76;93.61;97598.59;4984567;28;20042;-58
2022/05/05 08:48:17;;;;;;;14.68;8.13;;;16.20;99.90;;;15.62;92.98;97600.16;4987587;28;20369;-58
2022/05/05 08:50:46;;;;;;;11.05;8.73;;;16.10;99.90;;;15.55;91.44;97600.56;4989962;28;20041;-58
2022/05/05 08:53:15;;;;;;;10.98;9.82;;;16.00;99.90;;;15.46;92.69;97602.75;4989964;28;20095;-58
2022/05/05 08:55:44;;;;;;;13.80;11.00;;;15.90;99.90;;;15.27;92.34;97607.34;4990209;28;20046;-58
2022/05/05 08:58:10;;;;;;;11.20;9.02;;;15.80;99.90;;;15.31;92.98;97614.22;4989989;28;20417;-58
2022/05/05 09:00:36;;;;;;;16.45;10.95;;;15.80;99.90;;;15.20;93.75;97611.25;4993332;28;20050;-58
2022/05/05 09:03:04;;;;;;;12.90;9.40;;;15.70;99.90;;;15.20;93.89;97612.13;4991440;28;20031;-58
2022/05/05 09:05:42;;;;;;;12.73;8.57;;;15.60;99.90;;;15.25;94.88;97618.06;4987906;28;20183;-58
2022/05/05 09:08:25;;;;;;;16.63;9.63;;;15.60;99.90;;;15.24;94.20;97618.16;4991019;28;20483;-58
2022/05/05 09:10:54;;;;;;;11.65;9.43;;;15.60;99.90;;;15.21;93.00;97612.97;4985040;28;20599;-58
2022/05/05 09:13:23;;;;;;;10.38;8.95;;;15.60;99.90;;;15.26;93.31;97621.56;4991465;28;20045;-58
2022/05/05 09:15:52;;;;;;;12.73;9.48;;;15.60;99.90;;;15.38;93.33;97612.09;4994660;28;20121;-58
2022/05/05 09:18:29;;;;;;;10.15;8.57;;;15.70;99.90;;;15.47;92.73;97616.94;4994677;28;20235;-58
2022/05/05 09:21:00;;;;;;;14.40;10.32;;;15.80;99.90;;;15.54;91.05;97614.78;4990704;28;20033;-58
2022/05/05 09:26:29;;;;;;;15.23;10.77;;;16.10;99.90;;;15.75;91.26;97621.63;4987039;28;20048;-58
2022/05/05 09:28:56;;;;;;;14.40;10.55;;;16.30;99.90;;;15.80;89.15;97627.56;4991165;28;20123;-58
2022/05/05 09:31:22;;;;;;;11.15;8.63;;;16.30;99.90;;;15.92;89.20;97631.38;5002357;28;20034;-58
2022/05/05 09:33:48;;;;;;;14.43;8.93;;;16.40;99.90;;;16.01;90.22;97630.00;5003231;28;20393;-58
2022/05/05 09:36:17;;;;;;;12.15;9.07;;;16.40;99.90;;;16.12;88.63;97630.25;4991533;28;20053;-58
2022/05/05 09:38:55;;;;;;;14.13;9.85;;;16.60;99.90;;;16.17;86.27;97632.69;4995006;28;20571;-58
2022/05/05 09:41:24;;;;;;;15.05;11.80;;;16.50;99.90;;;15.93;84.36;97632.22;4993890;28;20033;-58
2022/05/05 09:43:53;;;;;;;15.00;11.60;;;16.50;99.90;;;15.92;85.58;97642.00;4999242;28;20033;-58
2022/05/05 09:46:21;;;;;;;13.38;11.63;;;16.50;99.90;;;15.93;86.70;97637.53;5008963;28;20661;-58
2022/05/05 09:48:47;;;;;;;12.52;10.43;;;16.40;99.90;;;15.99;86.17;97626.59;4995147;28;20038;-58
2022/05/05 09:51:15;;;;;;;16.60;10.85;;;16.40;99.90;;;16.00;83.63;97636.25;4996683;28;20037;-58
2022/05/05 09:59:24;;;;;;;8.95;7.88;;;16.60;99.90;;;16.45;86.78;97633.78;4990378;28;20056;-58
2022/05/05 10:01:52;;;;;;;15.65;10.40;;;16.80;99.90;;;16.54;86.50;97634.09;4999743;28;20033;-58
2022/05/05 10:04:23;;;;;;;12.93;9.48;;;17.00;99.90;;;16.77;85.23;97635.44;4995626;28;20441;-57
2022/05/05 10:06:49;;;;;;;14.07;10.75;;;17.20;99.90;;;16.92;81.58;97641.72;4992206;28;20464;-58
2022/05/05 10:09:19;;;;;;;12.88;11.07;;;17.40;99.90;;;17.03;77.99;97645.53;4990568;28;20338;-58
2022/05/05 10:11:45;;;;;;;15.70;10.30;;;17.50;99.90;;;17.15;78.94;97644.81;4992274;28;20087;-58
2022/05/05 10:14:14;;;;;;;11.82;10.60;;;17.60;99.90;;;17.17;78.35;97648.22;5006258;28;20581;-58
2022/05/05 10:16:42;;;;;;;12.80;9.80;;;17.70;99.90;;;17.23;79.10;97645.22;4999214;28;20034;-58
2022/05/05 10:19:09;;;;;;;10.05;8.10;;;17.70;99.90;;;17.38;79.44;97637.25;4994663;28;20112;-58
2022/05/05 10:21:44;;;;;;;9.90;8.60;;;17.70;99.90;;;17.45;78.87;97638.59;4988787;28;20034;-58
2022/05/05 10:24:25;;;;;;;13.18;10.10;;;17.90;99.90;;;17.45;78.09;97635.94;4988120;28;20448;-58
2022/05/05 10:26:54;;;;;;;11.90;8.95;;;17.90;99.90;;;17.50;78.15;97641.84;5006509;28;20038;-57
2022/05/05 10:29:41;;;;;;;12.45;9.00;;;17.80;99.90;;;17.41;77.49;97637.91;5008626;28;20635;-57
2022/05/05 10:32:12;;;;;;;14.80;11.88;;;17.90;99.90;;;17.33;73.53;97637.50;4991371;28;21255;-57
2022/05/05 10:34:41;;;;;;;13.35;11.30;;;17.90;99.90;;;17.20;75.05;97636.56;4993438;28;20034;-58
2022/05/05 10:37:10;;;;;;;14.32;10.55;;;17.90;99.90;;;17.10;79.85;97630.91;4989520;28;20049;-57
2022/05/05 10:40:06;;;;;;;13.63;11.00;;;17.70;99.90;;;17.11;76.90;97636.13;4989216;28;20425;-57
2022/05/05 10:42:43;;;;;;;13.93;9.88;;;17.60;99.90;;;17.28;77.38;97628.94;4988036;28;20103;-57
2022/05/05 10:45:38;;;;;;;12.40;10.82;;;17.70;99.90;;;17.38;77.09;97624.75;4991187;28;20034;-58
2022/05/05 10:48:08;;;;;;;15.38;9.43;;;17.80;99.90;;;17.58;76.98;97636.03;4993065;28;20148;-57